Time;durP1;ratioP1;P1;durP2;ratioP2;P2;SDS_P1;SDS_P2;PMS_P1;PMS_P2;Temp;Humidity;BMP_temperature;BMP_pressure;BME280_temperature;BME280_humidity;BME280_pressure;Samples;Min_cycle;Max_cycle;Signal;HPM_P1;HPM_P2
2023/07/11 00:00:05;;;;;;;4.55;1.48;;;19.90;64.10;;;;;;5028026;28;20056;-76
2023/07/11 00:02:32;;;;;;;4.85;1.90;;;19.90;64.20;;;;;;5030380;28;20045;-76
2023/07/11 00:05:00;;;;;;;5.60;1.90;;;19.90;64.20;;;;;;5030750;28;20057;-76
2023/07/11 00:07:28;;;;;;;5.10;1.73;;;19.90;64.20;;;;;;5031429;28;20262;-76
2023/07/11 00:09:55;;;;;;;5.65;1.95;;;19.80;64.20;;;;;;5030414;28;20064;-76
2023/07/11 00:12:28;;;;;;;5.60;1.80;;;19.80;64.00;;;;;;5029675;28;20149;-76
2023/07/11 00:14:56;;;;;;;5.25;1.90;;;19.70;64.00;;;;;;5029674;28;20081;-76
2023/07/11 00:17:24;;;;;;;4.63;2.10;;;19.70;63.80;;;;;;5026575;28;20054;-76
2023/07/11 00:19:53;;;;;;;5.50;1.67;;;19.70;63.70;;;;;;5023134;28;20277;-76
2023/07/11 00:22:23;;;;;;;5.07;1.92;;;19.70;63.60;;;;;;5029703;28;20052;-77
2023/07/11 00:24:54;;;;;;;5.65;1.85;;;19.70;63.70;;;;;;5029423;28;20141;-76
2023/07/11 00:27:23;;;;;;;8.45;1.90;;;19.70;63.90;;;;;;5029770;28;20128;-76
2023/07/11 00:29:50;;;;;;;4.93;1.87;;;19.70;64.00;;;;;;5029745;28;20653;-76
2023/07/11 00:32:18;;;;;;;6.15;1.80;;;19.70;64.10;;;;;;5030657;28;20260;-76
2023/07/11 00:34:46;;;;;;;4.53;1.60;;;19.60;64.20;;;;;;5031214;28;20054;-76
2023/07/11 00:37:13;;;;;;;5.20;1.85;;;19.60;64.30;;;;;;5013110;28;20132;-76
2023/07/11 00:39:41;;;;;;;4.47;1.60;;;19.50;64.20;;;;;;5029713;28;20156;-76
2023/07/11 00:42:09;;;;;;;6.00;1.87;;;19.50;64.20;;;;;;5029038;28;20116;-76
2023/07/11 00:44:57;;;;;;;6.13;1.90;;;19.50;64.20;;;;;;5011614;28;20353;-77
2023/07/11 00:47:26;;;;;;;6.68;2.22;;;19.50;63.60;;;;;;5013219;28;20076;-76
2023/07/11 00:49:55;;;;;;;5.50;2.00;;;19.50;64.30;;;;;;5045899;28;20097;-76
2023/07/11 00:52:26;;;;;;;5.93;1.70;;;19.50;64.50;;;;;;5010441;28;20556;-77
2023/07/11 00:54:59;;;;;;;3.83;1.70;;;19.50;64.20;;;;;;5028928;28;20046;-77
2023/07/11 00:57:29;;;;;;;4.88;1.48;;;19.50;64.20;;;;;;5012320;28;20246;-76
2023/07/11 00:59:56;;;;;;;5.57;1.98;;;19.50;64.10;;;;;;5012104;28;20112;-76
2023/07/11 01:02:26;;;;;;;6.63;2.03;;;19.50;64.20;;;;;;5011822;28;20046;-77
2023/07/11 01:04:55;;;;;;;4.07;1.77;;;19.40;64.40;;;;;;5012756;28;20109;-76
2023/07/11 01:07:25;;;;;;;4.40;1.60;;;19.50;64.40;;;;;;5012637;28;20487;-76
2023/07/11 01:09:53;;;;;;;5.57;1.95;;;19.40;64.70;;;;;;5012220;28;20320;-77
2023/07/11 01:12:21;;;;;;;5.82;1.88;;;19.40;64.60;;;;;;5012118;28;20137;-76
2023/07/11 01:14:50;;;;;;;4.88;1.52;;;19.40;64.40;;;;;;5029090;28;20465;-77
2023/07/11 01:17:27;;;;;;;5.22;1.90;;;19.40;64.50;;;;;;5009684;28;20054;-76
2023/07/11 01:19:55;;;;;;;4.50;1.70;;;19.40;64.40;;;;;;5007760;28;20060;-76
2023/07/11 01:22:25;;;;;;;4.30;1.80;;;19.40;64.40;;;;;;4991272;28;20238;-76
2023/07/11 01:24:56;;;;;;;5.63;1.77;;;19.40;64.70;;;;;;5010749;28;20537;-76
2023/07/11 01:27:23;;;;;;;5.57;1.80;;;19.40;64.70;;;;;;5012876;28;20050;-76
2023/07/11 01:29:52;;;;;;;6.47;2.08;;;19.40;64.70;;;;;;5011130;28;20590;-76
2023/07/11 01:32:19;;;;;;;5.63;2.00;;;19.30;64.70;;;;;;5011291;28;20049;-76
2023/07/11 01:34:46;;;;;;;6.15;2.03;;;19.30;64.90;;;;;;5009820;28;20261;-76
2023/07/11 01:37:13;;;;;;;7.32;1.90;;;19.30;65.00;;;;;;5012028;28;20073;-76
2023/07/11 01:39:41;;;;;;;6.32;1.80;;;19.30;64.80;;;;;;5028606;28;20073;-76
2023/07/11 01:42:10;;;;;;;5.43;2.10;;;19.30;64.70;;;;;;5028302;28;20090;-76
2023/07/11 01:44:37;;;;;;;5.67;2.23;;;19.30;64.40;;;;;;5028378;28;20054;-76
2023/07/11 01:47:06;;;;;;;4.43;1.80;;;19.30;64.50;;;;;;5011916;28;20623;-76
2023/07/11 01:49:34;;;;;;;4.78;1.95;;;19.30;64.50;;;;;;5028302;28;20049;-76
2023/07/11 01:52:07;;;;;;;4.15;1.80;;;19.30;64.50;;;;;;5010882;28;20112;-76
2023/07/11 01:54:34;;;;;;;5.13;1.70;;;19.30;64.50;;;;;;5028164;28;20100;-76
2023/07/11 01:57:07;;;;;;;5.17;1.63;;;19.20;64.60;;;;;;5027957;28;20046;-76
2023/07/11 01:59:35;;;;;;;7.13;2.03;;;19.20;64.70;;;;;;5028399;28;20297;-77
2023/07/11 02:02:02;;;;;;;5.32;1.88;;;19.20;64.70;;;;;;5024928;28;20050;-77
2023/07/11 02:04:31;;;;;;;5.32;1.65;;;19.20;64.70;;;;;;5008596;28;20047;-76
2023/07/11 02:06:58;;;;;;;6.45;1.80;;;19.20;64.60;;;;;;5011013;28;20417;-76
2023/07/11 02:09:25;;;;;;;5.23;2.00;;;19.20;64.30;;;;;;5010467;28;20423;-76
2023/07/11 02:11:52;;;;;;;6.32;1.95;;;19.10;64.40;;;;;;5011541;28;20637;-76
2023/07/11 02:14:21;;;;;;;3.50;1.85;;;19.10;64.70;;;;;;5028141;28;20060;-76
2023/07/11 02:16:50;;;;;;;6.25;1.98;;;19.10;65.20;;;;;;5011421;28;20197;-76
2023/07/11 02:19:19;;;;;;;4.85;1.80;;;19.10;65.10;;;;;;5008266;28;20386;-76
2023/07/11 02:21:46;;;;;;;5.97;1.90;;;19.10;65.40;;;;;;5008324;28;20089;-76
2023/07/11 02:24:15;;;;;;;4.28;1.80;;;19.10;65.60;;;;;;5023248;28;20347;-76
2023/07/11 02:26:42;;;;;;;5.00;1.73;;;19.10;65.60;;;;;;5021792;28;20411;-76
2023/07/11 02:29:10;;;;;;;5.20;1.95;;;19.10;65.60;;;;;;5008417;28;20428;-76
2023/07/11 02:31:38;;;;;;;4.97;2.15;;;19.00;65.50;;;;;;5015648;28;20049;-76
2023/07/11 02:34:06;;;;;;;5.83;2.07;;;19.00;65.70;;;;;;5014815;28;20046;-76
2023/07/11 02:36:33;;;;;;;3.90;1.50;;;19.00;65.90;;;;;;5030815;28;20576;-76
2023/07/11 02:39:00;;;;;;;5.18;1.50;;;19.00;66.10;;;;;;5031123;28;20153;-76
2023/07/11 02:41:27;;;;;;;4.13;1.88;;;19.00;66.10;;;;;;5031263;28;20408;-76
2023/07/11 02:43:55;;;;;;;7.07;2.38;;;19.00;66.40;;;;;;5031652;28;20133;-76
2023/07/11 02:46:22;;;;;;;6.20;2.07;;;19.00;66.50;;;;;;5031603;28;20092;-76
2023/07/11 02:48:50;;;;;;;5.57;2.30;;;18.90;66.60;;;;;;5031409;28;20364;-76
2023/07/11 02:51:17;;;;;;;6.20;2.00;;;18.90;66.90;;;;;;5030672;28;20050;-76
2023/07/11 02:53:44;;;;;;;6.00;1.92;;;18.90;66.80;;;;;;5011221;28;20514;-76
2023/07/11 02:56:11;;;;;;;5.57;2.13;;;18.90;66.80;;;;;;5010742;28;20137;-76
2023/07/11 02:58:38;;;;;;;4.93;2.00;;;18.90;66.80;;;;;;5030546;28;20379;-76
2023/07/11 03:01:05;;;;;;;4.65;1.70;;;18.90;66.60;;;;;;5031181;28;20281;-76
2023/07/11 03:03:32;;;;;;;6.80;2.40;;;18.80;66.70;;;;;;5014063;28;20050;-76
2023/07/11 03:06:01;;;;;;;7.47;2.10;;;18.80;67.00;;;;;;5031824;28;20519;-77
2023/07/11 03:08:28;;;;;;;5.15;2.30;;;18.80;67.10;;;;;;5032194;28;20141;-76
2023/07/11 03:10:59;;;;;;;7.63;2.17;;;18.80;67.10;;;;;;5022373;28;20513;-76
2023/07/11 03:13:27;;;;;;;5.93;2.20;;;18.70;67.30;;;;;;5030472;28;21360;-76
2023/07/11 03:15:54;;;;;;;7.20;2.33;;;18.70;67.30;;;;;;5031921;28;20060;-76
2023/07/11 03:18:21;;;;;;;6.32;2.40;;;18.70;67.20;;;;;;5029121;28;20073;-76
2023/07/11 03:20:48;;;;;;;6.32;2.60;;;18.70;67.20;;;;;;5030615;28;20101;-76
2023/07/11 03:23:20;;;;;;;5.10;2.23;;;18.70;67.30;;;;;;5031891;28;20058;-76
2023/07/11 03:25:47;;;;;;;5.65;2.13;;;18.60;67.50;;;;;;5030417;28;20257;-76
2023/07/11 03:28:14;;;;;;;4.45;2.08;;;18.60;67.70;;;;;;5023881;28;20061;-76
2023/07/11 03:30:41;;;;;;;5.50;2.10;;;18.60;67.80;;;;;;5011725;28;20046;-77
2023/07/11 03:33:09;;;;;;;5.68;2.20;;;18.60;67.70;;;;;;5029449;28;20054;-76
2023/07/11 03:35:36;;;;;;;6.07;2.03;;;18.60;67.70;;;;;;5031165;28;20076;-77
2023/07/11 03:38:02;;;;;;;6.07;2.20;;;18.60;67.70;;;;;;5030258;28;20775;-76
2023/07/11 03:40:31;;;;;;;4.78;2.20;;;18.60;67.50;;;;;;5029817;28;20057;-76
2023/07/11 03:42:58;;;;;;;4.43;2.20;;;18.60;67.70;;;;;;5030232;28;20060;-76
2023/07/11 03:45:25;;;;;;;6.53;2.20;;;18.60;67.80;;;;;;5013146;28;20054;-77
2023/07/11 03:47:53;;;;;;;6.23;2.60;;;18.60;67.70;;;;;;5030037;28;20587;-76
2023/07/11 03:50:21;;;;;;;6.13;2.08;;;18.50;67.90;;;;;;5031106;28;20273;-76
2023/07/11 03:52:48;;;;;;;5.18;2.25;;;18.50;68.10;;;;;;5028972;28;20158;-76
2023/07/11 03:55:15;;;;;;;5.38;2.67;;;18.50;68.30;;;;;;5030098;28;20129;-77
2023/07/11 03:57:43;;;;;;;4.75;2.20;;;18.50;68.20;;;;;;5029547;28;20484;-77
2023/07/11 04:00:11;;;;;;;4.77;2.30;;;18.40;68.10;;;;;;5032059;28;20056;-76
2023/07/11 04:02:41;;;;;;;6.55;2.60;;;18.40;68.20;;;;;;5029563;28;20679;-76
2023/07/11 04:05:08;;;;;;;6.90;3.00;;;18.40;68.10;;;;;;5031430;28;20151;-76
2023/07/11 04:07:35;;;;;;;4.57;2.20;;;18.40;68.00;;;;;;5031417;28;21049;-76
2023/07/11 04:10:02;;;;;;;5.38;2.50;;;18.40;68.10;;;;;;5025621;28;20675;-76
2023/07/11 04:12:29;;;;;;;5.20;2.13;;;18.40;68.30;;;;;;5009774;28;20070;-76
2023/07/11 04:14:57;;;;;;;7.10;2.58;;;18.40;68.60;;;;;;5013734;28;20285;-76
2023/07/11 04:17:24;;;;;;;7.38;3.00;;;18.40;68.60;;;;;;5029298;28;20505;-77
2023/07/11 04:19:51;;;;;;;6.63;2.70;;;18.40;68.60;;;;;;5012999;28;20077;-77
2023/07/11 04:22:19;;;;;;;5.72;2.67;;;18.40;68.50;;;;;;5031260;28;20617;-76
2023/07/11 04:24:46;;;;;;;5.73;2.50;;;18.30;68.90;;;;;;5029656;28;20054;-77
2023/07/11 04:27:13;;;;;;;5.90;2.53;;;18.30;69.10;;;;;;5028307;28;21454;-77
2023/07/11 04:29:40;;;;;;;5.03;2.80;;;18.30;69.00;;;;;;5031356;28;20057;-77
2023/07/11 04:32:08;;;;;;;6.28;2.70;;;18.30;69.00;;;;;;5029066;28;20108;-77
2023/07/11 04:34:35;;;;;;;5.03;2.60;;;18.30;69.40;;;;;;5029602;28;20543;-76
2023/07/11 04:37:02;;;;;;;6.60;2.70;;;18.30;69.70;;;;;;5021124;28;20145;-76
2023/07/11 04:39:29;;;;;;;6.78;2.92;;;18.30;69.90;;;;;;5010938;28;20257;-76
2023/07/11 04:41:56;;;;;;;6.15;2.60;;;18.30;69.60;;;;;;5028182;28;20489;-77
2023/07/11 04:44:23;;;;;;;6.82;2.50;;;18.30;69.60;;;;;;5025499;28;20166;-77
2023/07/11 04:46:50;;;;;;;4.95;2.47;;;18.30;69.40;;;;;;5011397;28;20076;-76
2023/07/11 04:49:18;;;;;;;5.33;2.70;;;18.30;69.30;;;;;;5014330;28;20053;-77
2023/07/11 04:51:46;;;;;;;5.75;2.83;;;18.30;69.40;;;;;;5029005;28;20373;-77
2023/07/11 04:54:13;;;;;;;6.43;2.97;;;18.30;69.40;;;;;;5027977;28;20580;-76
2023/07/11 04:56:41;;;;;;;7.07;3.20;;;18.30;69.70;;;;;;5028474;28;20144;-76
2023/07/11 04:59:08;;;;;;;7.00;3.08;;;18.30;69.60;;;;;;5028749;28;20048;-76
2023/07/11 05:01:35;;;;;;;7.20;3.53;;;18.30;69.70;;;;;;5027463;28;20085;-77
2023/07/11 05:04:03;;;;;;;5.57;2.83;;;18.30;69.70;;;;;;5030410;28;20312;-77
2023/07/11 05:06:31;;;;;;;6.63;3.65;;;18.30;69.60;;;;;;5030344;28;20050;-76
2023/07/11 05:08:58;;;;;;;7.57;4.15;;;18.30;69.60;;;;;;5029030;28;20142;-76
2023/07/11 05:11:25;;;;;;;8.20;4.55;;;18.30;69.80;;;;;;5019637;28;20046;-76
2023/07/11 05:13:52;;;;;;;8.07;4.70;;;18.30;70.50;;;;;;5028534;28;20580;-77
2023/07/11 05:16:22;;;;;;;6.88;4.65;;;18.30;70.40;;;;;;5028559;28;20283;-77
2023/07/11 05:18:50;;;;;;;8.63;4.65;;;18.30;70.40;;;;;;5029520;28;20054;-77
2023/07/11 05:21:19;;;;;;;11.48;4.88;;;18.30;70.30;;;;;;5030120;28;20070;-77
2023/07/11 05:23:48;;;;;;;9.82;5.22;;;18.30;70.80;;;;;;5028532;28;20108;-77
2023/07/11 05:26:16;;;;;;;8.03;4.97;;;18.30;71.40;;;;;;5029151;28;20060;-76
2023/07/11 05:28:43;;;;;;;9.02;5.28;;;18.30;71.50;;;;;;5028487;28;20248;-77
2023/07/11 05:31:10;;;;;;;9.93;5.43;;;18.30;71.50;;;;;;5029187;28;20504;-77
2023/07/11 05:33:37;;;;;;;11.10;5.18;;;18.30;71.30;;;;;;5024571;28;20468;-76
2023/07/11 05:36:13;;;;;;;8.95;5.53;;;18.40;71.70;;;;;;5023416;28;20061;-76
2023/07/11 05:38:41;;;;;;;7.40;5.23;;;18.40;71.80;;;;;;5019463;28;20484;-76
2023/07/11 05:41:09;;;;;;;8.68;4.65;;;18.40;72.00;;;;;;5028952;28;20268;-76
2023/07/11 05:43:36;;;;;;;5.70;3.90;;;18.40;72.00;;;;;;5034660;28;20092;-76
2023/07/11 05:46:03;;;;;;;9.35;5.35;;;18.40;72.00;;;;;;5033070;28;20181;-76
2023/07/11 05:48:30;;;;;;;9.43;5.70;;;18.50;72.10;;;;;;5033171;28;20053;-76
2023/07/11 05:50:59;;;;;;;8.47;5.17;;;18.50;72.10;;;;;;5037044;28;20049;-76
2023/07/11 05:53:26;;;;;;;8.80;5.32;;;18.50;72.20;;;;;;5024478;28;20253;-76
2023/07/11 05:55:53;;;;;;;8.85;5.30;;;18.50;72.20;;;;;;5020806;28;20047;-76
2023/07/11 05:58:21;;;;;;;7.30;4.82;;;18.60;72.20;;;;;;5009370;28;20052;-76
2023/07/11 06:00:51;;;;;;;10.30;5.65;;;18.60;72.30;;;;;;5034531;28;20081;-76
2023/07/11 06:03:18;;;;;;;7.77;5.20;;;18.70;72.40;;;;;;5028664;28;20038;-76
2023/07/11 06:05:45;;;;;;;10.60;5.30;;;18.70;72.20;;;;;;5048297;28;20285;-76
2023/07/11 06:08:12;;;;;;;8.65;4.97;;;18.70;72.20;;;;;;5033901;28;20049;-76
2023/07/11 06:10:39;;;;;;;8.18;4.95;;;18.80;72.30;;;;;;5015924;28;20057;-76
2023/07/11 06:13:06;;;;;;;7.93;4.90;;;18.80;72.30;;;;;;5032568;28;20547;-76
2023/07/11 06:15:34;;;;;;;10.57;5.43;;;18.90;72.40;;;;;;5031547;28;20057;-76
2023/07/11 06:18:01;;;;;;;7.38;4.57;;;18.90;72.40;;;;;;5037141;28;20264;-76
2023/07/11 06:20:28;;;;;;;10.80;6.07;;;19.00;72.30;;;;;;5019837;28;20465;-76
2023/07/11 06:22:55;;;;;;;9.45;5.53;;;19.00;72.50;;;;;;5019651;28;20046;-76
2023/07/11 06:25:22;;;;;;;10.73;5.60;;;19.10;72.60;;;;;;5019953;28;20151;-76
2023/07/11 06:27:49;;;;;;;10.27;4.87;;;19.20;72.50;;;;;;5020775;28;20054;-76
2023/07/11 06:30:16;;;;;;;8.13;5.15;;;19.30;72.40;;;;;;5035908;28;20324;-76
2023/07/11 06:32:44;;;;;;;8.07;5.22;;;19.30;72.10;;;;;;5034369;28;20129;-76
2023/07/11 06:35:12;;;;;;;9.85;5.30;;;19.40;72.20;;;;;;5020878;28;20054;-75
2023/07/11 06:37:38;;;;;;;9.02;4.38;;;19.50;72.10;;;;;;5016705;28;20137;-76
2023/07/11 06:40:08;;;;;;;9.97;5.13;;;19.50;71.90;;;;;;5015548;28;20137;-75
2023/07/11 06:42:35;;;;;;;9.40;5.00;;;19.50;71.80;;;;;;5021445;28;20257;-75
2023/07/11 06:45:03;;;;;;;9.45;5.00;;;19.70;71.50;;;;;;5015754;28;20129;-76
2023/07/11 06:47:29;;;;;;;8.35;4.55;;;19.70;71.20;;;;;;4994179;28;20050;-76
2023/07/11 06:49:58;;;;;;;7.95;4.80;;;19.80;71.10;;;;;;5019737;28;20054;-76
2023/07/11 06:52:25;;;;;;;8.20;4.57;;;19.90;71.10;;;;;;5028765;28;20046;-75
2023/07/11 06:54:51;;;;;;;9.73;5.20;;;20.00;70.60;;;;;;5025376;28;20848;-75
2023/07/11 06:57:19;;;;;;;7.72;4.20;;;20.00;70.50;;;;;;5022377;28;20050;-75
2023/07/11 06:59:47;;;;;;;7.80;4.68;;;20.00;70.20;;;;;;5032082;28;20050;-75
2023/07/11 07:02:14;;;;;;;9.18;4.72;;;20.10;70.30;;;;;;5018343;28;20544;-75
2023/07/11 07:04:41;;;;;;;7.87;4.27;;;20.20;70.40;;;;;;5032315;28;20125;-75
2023/07/11 07:07:10;;;;;;;8.43;4.43;;;20.30;70.20;;;;;;5033079;28;20307;-76
2023/07/11 07:09:36;;;;;;;8.63;4.35;;;20.30;70.10;;;;;;5031718;28;20050;-75
2023/07/11 07:12:04;;;;;;;8.52;4.57;;;20.40;69.90;;;;;;5032374;28;20144;-75
2023/07/11 07:14:31;;;;;;;7.32;4.00;;;20.50;69.70;;;;;;5038124;28;20052;-75
2023/07/11 07:16:58;;;;;;;7.30;4.23;;;20.50;69.50;;;;;;5038990;28;20055;-75
2023/07/11 07:19:25;;;;;;;7.55;4.30;;;20.50;69.50;;;;;;5033446;28;20395;-74
2023/07/11 07:21:52;;;;;;;9.77;4.97;;;20.60;69.60;;;;;;5015703;28;20049;-76
2023/07/11 07:24:21;;;;;;;9.18;4.53;;;20.60;69.60;;;;;;5032034;28;20057;-76
2023/07/11 07:26:47;;;;;;;9.90;4.50;;;20.70;69.40;;;;;;5030848;28;20369;-76
2023/07/11 07:29:14;;;;;;;9.93;4.50;;;20.80;69.40;;;;;;5030654;28;20559;-76
2023/07/11 07:31:41;;;;;;;7.90;4.55;;;20.80;69.70;;;;;;5023285;28;21002;-74
2023/07/11 07:34:08;;;;;;;8.50;4.45;;;20.90;69.70;;;;;;5030215;28;20448;-74
2023/07/11 07:36:35;;;;;;;7.00;4.55;;;21.00;69.60;;;;;;5037229;28;20053;-75
2023/07/11 07:39:02;;;;;;;9.68;4.50;;;21.00;69.50;;;;;;5038539;28;20046;-75
2023/07/11 07:41:30;;;;;;;8.47;4.27;;;21.10;69.00;;;;;;5031686;28;20568;-74
2023/07/11 07:43:57;;;;;;;8.27;4.35;;;21.10;69.00;;;;;;5028501;28;20288;-75
2023/07/11 07:46:24;;;;;;;7.30;4.32;;;21.20;68.90;;;;;;5030773;28;20050;-75
2023/07/11 07:48:51;;;;;;;8.55;4.55;;;21.30;68.90;;;;;;5031218;28;20085;-74
2023/07/11 07:51:20;;;;;;;8.02;3.97;;;21.40;68.70;;;;;;5040036;28;20557;-75
2023/07/11 07:53:47;;;;;;;8.53;4.20;;;21.40;68.70;;;;;;5033075;28;20064;-74
2023/07/11 07:56:15;;;;;;;7.43;3.90;;;21.50;68.60;;;;;;5036702;28;20260;-74
2023/07/11 07:58:45;;;;;;;7.30;4.00;;;21.50;68.50;;;;;;5035080;28;20054;-74
2023/07/11 08:01:12;;;;;;;8.68;3.90;;;21.60;68.50;;;;;;5038591;28;20136;-74
2023/07/11 08:03:40;;;;;;;9.55;3.53;;;21.70;68.60;;;;;;5024427;28;20075;-74
2023/07/11 08:06:10;;;;;;;7.80;3.63;;;21.80;68.20;;;;;;5027076;28;20046;-75
2023/07/11 08:08:37;;;;;;;10.23;3.67;;;21.90;68.20;;;;;;5019225;28;20357;-74
2023/07/11 08:11:05;;;;;;;6.10;3.58;;;21.90;67.20;;;;;;5033038;28;20088;-75
2023/07/11 08:13:32;;;;;;;7.72;3.22;;;22.00;66.80;;;;;;5033987;28;20484;-75
2023/07/11 08:16:00;;;;;;;6.78;3.20;;;22.10;67.20;;;;;;5032918;28;20133;-75
2023/07/11 08:18:27;;;;;;;7.03;3.00;;;22.20;66.80;;;;;;5034951;28;20136;-76
2023/07/11 08:20:54;;;;;;;8.32;3.08;;;22.40;65.90;;;;;;5017184;28;20274;-74
2023/07/11 08:23:21;;;;;;;6.95;3.28;;;22.50;64.90;;;;;;5025651;28;20046;-74
2023/07/11 08:25:51;;;;;;;5.93;2.88;;;22.60;64.90;;;;;;5024370;28;20070;-75
2023/07/11 08:28:19;;;;;;;8.27;3.35;;;22.70;63.90;;;;;;5021968;28;20054;-75
2023/07/11 08:30:45;;;;;;;7.97;3.20;;;22.80;63.80;;;;;;5033025;28;20064;-76
2023/07/11 08:33:15;;;;;;;7.63;2.95;;;23.00;62.70;;;;;;5036440;28;20759;-76
2023/07/11 08:35:42;;;;;;;8.30;2.72;;;23.10;62.50;;;;;;5037704;28;20156;-75
2023/07/11 08:38:11;;;;;;;9.20;3.20;;;23.20;62.00;;;;;;5026754;28;20053;-74
2023/07/11 08:40:42;;;;;;;8.55;3.17;;;23.30;61.50;;;;;;5018498;28;20552;-75
2023/07/11 08:43:16;;;;;;;7.73;2.80;;;23.40;61.10;;;;;;5027337;28;20054;-75
2023/07/11 08:45:49;;;;;;;6.60;2.67;;;23.50;60.70;;;;;;5021344;28;20271;-75
2023/07/11 08:48:24;;;;;;;5.53;2.47;;;23.60;60.80;;;;;;5021094;28;20531;-75
2023/07/11 08:51:00;;;;;;;5.82;2.42;;;23.60;60.40;;;;;;5014414;28;20595;-75
2023/07/11 08:53:31;;;;;;;5.70;2.20;;;23.70;59.80;;;;;;5017300;28;20133;-76
2023/07/11 08:56:06;;;;;;;6.03;1.90;;;23.80;59.20;;;;;;5027494;28;20622;-73
2023/07/11 08:58:36;;;;;;;9.85;2.10;;;23.90;57.50;;;;;;5025023;28;20272;-76
2023/07/11 09:01:11;;;;;;;5.75;2.10;;;24.00;57.00;;;;;;5027327;28;20045;-76
2023/07/11 09:03:44;;;;;;;6.28;2.20;;;24.00;57.10;;;;;;5027239;28;20344;-76
2023/07/11 09:06:15;;;;;;;6.82;2.20;;;24.10;56.50;;;;;;5025905;28;20116;-76
2023/07/11 09:08:44;;;;;;;9.43;2.07;;;24.20;56.30;;;;;;5025450;28;20060;-76
2023/07/11 09:11:15;;;;;;;6.03;2.40;;;24.20;55.90;;;;;;5026152;28;20273;-76
2023/07/11 09:14:03;;;;;;;6.35;2.20;;;24.20;56.30;;;;;;5026324;28;20456;-76
2023/07/11 09:16:35;;;;;;;5.05;1.98;;;24.30;56.70;;;;;;5018694;28;20050;-76
2023/07/11 09:19:24;;;;;;;6.43;2.50;;;24.40;56.40;;;;;;5010109;28;20054;-75
2023/07/11 09:21:57;;;;;;;5.60;2.07;;;24.40;56.60;;;;;;5024578;28;20042;-82
2023/07/11 09:24:32;;;;;;;7.05;1.90;;;24.40;56.10;;;;;;5010732;28;20277;-82
2023/07/11 09:27:05;;;;;;;6.57;2.20;;;24.50;56.20;;;;;;5023128;28;20156;-76
2023/07/11 09:29:33;;;;;;;6.07;2.42;;;24.50;55.50;;;;;;5021892;28;20052;-76
2023/07/11 09:32:04;;;;;;;9.00;2.15;;;24.60;55.50;;;;;;5025907;28;20099;-81
2023/07/11 09:34:36;;;;;;;7.23;2.30;;;24.60;55.00;;;;;;5025880;28;20564;-84
2023/07/11 09:37:12;;;;;;;5.47;1.88;;;24.70;55.00;;;;;;5041467;28;20353;-88
2023/07/11 09:39:47;;;;;;;6.13;2.15;;;24.70;53.60;;;;;;5016878;28;20046;-87
2023/07/11 09:42:21;;;;;;;5.45;1.90;;;24.90;52.90;;;;;;5009348;28;20054;-87
2023/07/11 09:44:59;;;;;;;7.97;1.80;;;25.00;53.10;;;;;;5018978;28;20347;-87
2023/07/11 09:47:30;;;;;;;7.17;2.07;;;25.00;52.70;;;;;;5018030;28;20054;-86
2023/07/11 09:50:00;;;;;;;5.55;1.90;;;25.00;52.90;;;;;;5005840;28;20274;-85
2023/07/11 09:52:29;;;;;;;5.93;2.17;;;25.10;52.90;;;;;;5034358;28;20128;-88
2023/07/11 09:54:57;;;;;;;6.60;2.35;;;25.20;53.10;;;;;;4969410;28;20703;-87
2023/07/11 09:57:24;;;;;;;5.07;1.98;;;25.30;53.20;;;;;;5028355;28;20156;-86
2023/07/11 09:59:59;;;;;;;7.20;2.20;;;25.40;53.00;;;;;;5023797;28;20045;-86
2023/07/11 10:02:26;;;;;;;5.80;1.80;;;25.50;52.50;;;;;;5027875;28;20271;-87
2023/07/11 10:04:56;;;;;;;6.40;2.08;;;25.50;52.30;;;;;;5034033;28;20620;-88
2023/07/11 10:07:30;;;;;;;5.43;2.30;;;25.60;52.60;;;;;;5010309;28;20064;-85
2023/07/11 10:10:02;;;;;;;5.32;2.13;;;25.60;52.90;;;;;;5044942;28;20045;-87
2023/07/11 10:12:30;;;;;;;6.53;2.23;;;25.60;53.20;;;;;;5007975;28;20081;-87
2023/07/11 10:14:59;;;;;;;4.97;2.30;;;25.60;53.30;;;;;;5008815;28;20643;-87
2023/07/11 10:17:33;;;;;;;7.28;2.55;;;25.70;53.00;;;;;;5011567;28;20053;-87
2023/07/11 10:20:03;;;;;;;5.50;2.33;;;25.80;53.00;;;;;;5006673;28;20050;-86
2023/07/11 10:22:33;;;;;;;5.60;2.50;;;25.80;53.00;;;;;;5025474;28;20061;-86
2023/07/11 10:25:03;;;;;;;6.73;2.07;;;25.80;52.70;;;;;;5010832;28;20161;-85
2023/07/11 10:27:36;;;;;;;12.60;3.17;;;26.00;53.20;;;;;;5026295;28;20304;-85
2023/07/11 10:30:05;;;;;;;8.00;2.78;;;26.00;53.50;;;;;;5027250;28;20057;-84
2023/07/11 10:32:37;;;;;;;6.30;2.55;;;26.00;53.20;;;;;;5010738;28;20050;-85
2023/07/11 10:35:09;;;;;;;6.72;2.58;;;26.10;52.20;;;;;;5027962;28;20128;-84
2023/07/11 10:37:42;;;;;;;8.60;2.80;;;26.10;53.20;;;;;;5009443;28;20082;-85
2023/07/11 10:40:17;;;;;;;8.15;2.33;;;26.20;52.50;;;;;;5027252;28;21021;-85
2023/07/11 10:42:51;;;;;;;6.80;2.40;;;26.20;52.70;;;;;;5028261;28;20038;-84
2023/07/11 10:45:24;;;;;;;5.35;2.22;;;26.40;52.00;;;;;;5008745;28;20116;-84
2023/07/11 10:47:56;;;;;;;6.53;2.20;;;26.40;52.10;;;;;;5027235;28;20058;-83
2023/07/11 10:50:36;;;;;;;5.37;2.20;;;26.40;52.80;;;;;;5025828;28;20184;-84
2023/07/11 10:53:16;;;;;;;6.63;2.55;;;26.40;52.80;;;;;;5054359;28;20272;-82
2023/07/11 10:55:49;;;;;;;7.75;2.50;;;26.50;52.20;;;;;;5033636;28;20057;-83
2023/07/11 10:58:21;;;;;;;5.35;2.17;;;26.50;52.20;;;;;;5037053;28;20598;-81
2023/07/11 11:00:58;;;;;;;7.63;2.28;;;26.60;52.00;;;;;;5030235;28;20137;-84
2023/07/11 11:03:37;;;;;;;4.87;2.30;;;26.60;51.20;;;;;;5026382;28;21039;-83
2023/07/11 11:06:17;;;;;;;5.70;2.15;;;26.70;51.10;;;;;;5027693;28;20285;-84
2023/07/11 11:08:53;;;;;;;7.10;2.10;;;26.70;51.30;;;;;;5053468;28;20495;-84
2023/07/11 11:11:30;;;;;;;4.97;2.45;;;26.80;51.40;;;;;;5029222;28;20069;-84
2023/07/11 11:14:07;;;;;;;6.05;2.13;;;26.80;51.80;;;;;;5026062;28;20053;-83
2023/07/11 11:16:42;;;;;;;7.43;2.00;;;26.80;51.00;;;;;;5028363;28;20056;-84
2023/07/11 11:19:22;;;;;;;5.93;2.05;;;26.90;50.70;;;;;;5027901;28;20269;-84
2023/07/11 11:21:58;;;;;;;6.35;2.20;;;26.90;51.90;;;;;;5025160;28;20101;-84
2023/07/11 11:24:43;;;;;;;5.22;2.50;;;27.00;51.80;;;;;;5024167;28;20548;-84
2023/07/11 11:27:25;;;;;;;5.43;2.40;;;27.00;52.50;;;;;;5034797;28;20053;-83
2023/07/11 11:30:09;;;;;;;4.63;2.40;;;27.10;50.10;;;;;;5032940;28;20515;-81
2023/07/11 11:32:47;;;;;;;8.57;2.35;;;27.10;50.60;;;;;;5032182;28;20870;-82
2023/07/11 11:35:26;;;;;;;4.72;2.25;;;27.10;50.90;;;;;;5015516;28;20050;-82
2023/07/11 11:38:08;;;;;;;6.20;2.10;;;27.20;50.00;;;;;;5040328;28;20049;-82
2023/07/11 11:40:40;;;;;;;5.63;2.30;;;27.20;50.00;;;;;;5043652;28;20054;-82
2023/07/11 11:43:13;;;;;;;5.53;2.30;;;27.20;50.00;;;;;;5036772;28;20506;-83
2023/07/11 11:45:40;;;;;;;6.28;3.15;;;27.20;49.60;;;;;;5012989;28;20301;-83
2023/07/11 11:48:17;;;;;;;7.35;2.30;;;27.30;49.30;;;;;;5030829;28;20506;-83
2023/07/11 11:50:46;;;;;;;5.03;2.40;;;27.30;50.30;;;;;;5027081;28;20568;-82
2023/07/11 11:53:23;;;;;;;5.40;2.40;;;27.30;50.50;;;;;;5024616;28;20046;-81
2023/07/11 11:55:57;;;;;;;5.60;2.27;;;27.30;50.00;;;;;;5020662;28;20047;-81
2023/07/11 11:58:25;;;;;;;5.45;2.60;;;27.40;50.50;;;;;;5024962;28;20280;-83
2023/07/11 12:00:55;;;;;;;5.85;2.60;;;27.40;50.20;;;;;;5038164;28;20053;-85
2023/07/11 12:03:27;;;;;;;6.35;2.50;;;27.50;49.80;;;;;;5035603;28;20496;-84
2023/07/11 12:05:57;;;;;;;6.75;2.60;;;27.50;48.50;;;;;;5034883;28;20550;-83
2023/07/11 12:08:33;;;;;;;5.90;2.30;;;27.60;48.00;;;;;;5029336;28;20500;-82
2023/07/11 12:11:20;;;;;;;6.50;2.40;;;27.60;48.60;;;;;;5035871;28;20273;-84
2023/07/11 12:14:19;;;;;;;5.90;2.35;;;27.60;49.40;;;;;;5033724;28;20076;-84
2023/07/11 12:16:49;;;;;;;6.32;2.50;;;27.70;49.20;;;;;;5034383;28;20128;-84
2023/07/11 12:19:30;;;;;;;6.80;2.53;;;27.70;49.20;;;;;;5025574;28;20528;-83
2023/07/11 12:22:06;;;;;;;5.63;2.33;;;27.70;49.70;;;;;;5030064;28;20576;-84
2023/07/11 12:24:45;;;;;;;6.10;2.40;;;27.80;48.70;;;;;;5030840;28;20281;-84
2023/07/11 12:27:42;;;;;;;7.22;2.53;;;27.80;48.50;;;;;;5031598;28;20423;-84
2023/07/11 12:30:37;;;;;;;8.55;2.28;;;27.90;48.80;;;;;;5028490;28;20046;-84
2023/07/11 12:33:32;;;;;;;4.45;2.17;;;27.90;48.40;;;;;;5028946;28;20687;-84
2023/07/11 12:36:28;;;;;;;6.50;2.50;;;27.90;48.60;;;;;;5019394;28;20053;-85
2023/07/11 12:39:00;;;;;;;6.13;2.53;;;28.00;47.20;;;;;;5018090;28;20764;-80
2023/07/11 12:41:37;;;;;;;6.22;2.72;;;28.00;47.50;;;;;;5024861;28;20097;-83
2023/07/11 12:44:06;;;;;;;6.15;2.70;;;27.90;47.50;;;;;;5022857;28;20137;-81
2023/07/11 12:46:36;;;;;;;7.70;2.72;;;28.00;47.50;;;;;;5013433;28;20037;-82
2023/07/11 12:49:05;;;;;;;5.97;2.43;;;28.00;47.60;;;;;;5027001;28;20125;-81
2023/07/11 12:51:34;;;;;;;4.85;2.40;;;28.00;48.50;;;;;;5029773;28;20742;-82
2023/07/11 12:54:13;;;;;;;6.38;2.80;;;28.00;48.60;;;;;;5032134;28;20053;-83
2023/07/11 12:56:43;;;;;;;5.85;2.65;;;28.00;48.00;;;;;;5033881;28;20058;-83
2023/07/11 12:59:20;;;;;;;7.20;2.25;;;28.00;48.40;;;;;;5044473;28;20072;-82